sensor_id;sensor_type;location;lat;lon;timestamp;P1;durP1;ratioP1;P2;durP2;ratioP2
54589;SDS011;40485;53.172;5.416;2022-09-12T00:00:25;11.40;;;8.45;;
54589;SDS011;40485;53.172;5.416;2022-09-12T00:02:54;9.27;;;8.25;;
54589;SDS011;40485;53.172;5.416;2022-09-12T00:05:20;11.43;;;8.80;;
54589;SDS011;40485;53.172;5.416;2022-09-12T00:07:46;9.77;;;8.82;;
54589;SDS011;40485;53.172;5.416;2022-09-12T00:10:11;10.43;;;9.30;;
54589;SDS011;40485;53.172;5.416;2022-09-12T00:12:37;9.57;;;8.65;;
54589;SDS011;40485;53.172;5.416;2022-09-12T00:15:03;12.70;;;9.75;;
54589;SDS011;40485;53.172;5.416;2022-09-12T00:17:29;12.75;;;9.63;;
54589;SDS011;40485;53.172;5.416;2022-09-12T00:19:57;10.80;;;9.48;;
54589;SDS011;40485;53.172;5.416;2022-09-12T00:22:23;11.00;;;9.05;;
54589;SDS011;40485;53.172;5.416;2022-09-12T00:24:49;10.25;;;9.15;;
54589;SDS011;40485;53.172;5.416;2022-09-12T00:27:14;10.13;;;9.13;;
54589;SDS011;40485;53.172;5.416;2022-09-12T00:29:40;11.88;;;9.75;;
54589;SDS011;40485;53.172;5.416;2022-09-12T00:32:06;10.52;;;9.40;;
54589;SDS011;40485;53.172;5.416;2022-09-12T00:34:31;11.10;;;10.00;;
54589;SDS011;40485;53.172;5.416;2022-09-12T00:36:57;10.75;;;9.65;;
54589;SDS011;40485;53.172;5.416;2022-09-12T00:39:22;12.10;;;9.18;;
54589;SDS011;40485;53.172;5.416;2022-09-12T00:41:48;10.55;;;9.38;;
54589;SDS011;40485;53.172;5.416;2022-09-12T00:51:45;10.75;;;9.23;;
54589;SDS011;40485;53.172;5.416;2022-09-12T00:54:16;11.20;;;9.43;;
54589;SDS011;40485;53.172;5.416;2022-09-12T00:56:46;10.63;;;9.18;;
54589;SDS011;40485;53.172;5.416;2022-09-12T00:59:19;11.00;;;9.77;;
54589;SDS011;40485;53.172;5.416;2022-09-12T01:01:49;10.35;;;9.35;;
54589;SDS011;40485;53.172;5.416;2022-09-12T01:04:17;12.43;;;10.60;;
54589;SDS011;40485;53.172;5.416;2022-09-12T01:06:45;11.77;;;10.32;;
54589;SDS011;40485;53.172;5.416;2022-09-12T01:09:15;12.48;;;10.60;;
54589;SDS011;40485;53.172;5.416;2022-09-12T01:11:43;11.88;;;10.68;;
54589;SDS011;40485;53.172;5.416;2022-09-12T01:14:11;14.35;;;10.75;;
54589;SDS011;40485;53.172;5.416;2022-09-12T01:16:38;12.63;;;10.70;;
54589;SDS011;40485;53.172;5.416;2022-09-12T01:27:16;11.40;;;9.57;;
54589;SDS011;40485;53.172;5.416;2022-09-12T01:32:26;12.75;;;10.18;;
54589;SDS011;40485;53.172;5.416;2022-09-12T01:38:13;10.88;;;9.77;;
54589;SDS011;40485;53.172;5.416;2022-09-12T01:46:53;12.02;;;10.65;;
54589;SDS011;40485;53.172;5.416;2022-09-12T01:49:35;11.98;;;10.40;;
54589;SDS011;40485;53.172;5.416;2022-09-12T01:52:22;14.10;;;10.65;;
54589;SDS011;40485;53.172;5.416;2022-09-12T01:54:58;13.30;;;10.85;;
54589;SDS011;40485;53.172;5.416;2022-09-12T01:57:32;15.88;;;11.30;;
54589;SDS011;40485;53.172;5.416;2022-09-12T02:00:04;12.38;;;10.90;;
54589;SDS011;40485;53.172;5.416;2022-09-12T02:02:38;13.07;;;10.80;;
54589;SDS011;40485;53.172;5.416;2022-09-12T02:05:30;13.60;;;11.27;;
54589;SDS011;40485;53.172;5.416;2022-09-12T02:10:32;13.30;;;10.75;;
54589;SDS011;40485;53.172;5.416;2022-09-12T02:13:12;12.43;;;11.13;;
54589;SDS011;40485;53.172;5.416;2022-09-12T02:15:43;14.85;;;11.70;;
54589;SDS011;40485;53.172;5.416;2022-09-12T02:18:13;14.52;;;11.60;;
54589;SDS011;40485;53.172;5.416;2022-09-12T02:20:42;18.15;;;11.57;;
54589;SDS011;40485;53.172;5.416;2022-09-12T02:23:21;13.27;;;11.80;;
54589;SDS011;40485;53.172;5.416;2022-09-12T02:25:51;14.13;;;11.88;;
54589;SDS011;40485;53.172;5.416;2022-09-12T02:28:29;14.88;;;11.77;;
54589;SDS011;40485;53.172;5.416;2022-09-12T02:39:05;12.63;;;11.40;;
54589;SDS011;40485;53.172;5.416;2022-09-12T02:41:31;16.42;;;12.30;;
54589;SDS011;40485;53.172;5.416;2022-09-12T02:43:56;15.05;;;12.38;;
54589;SDS011;40485;53.172;5.416;2022-09-12T02:46:27;14.68;;;12.00;;
54589;SDS011;40485;53.172;5.416;2022-09-12T02:49:13;16.48;;;12.60;;
54589;SDS011;40485;53.172;5.416;2022-09-12T02:51:40;14.07;;;12.25;;
54589;SDS011;40485;53.172;5.416;2022-09-12T02:54:06;17.70;;;12.77;;
54589;SDS011;40485;53.172;5.416;2022-09-12T02:56:33;15.60;;;13.70;;
54589;SDS011;40485;53.172;5.416;2022-09-12T02:59:03;16.13;;;12.85;;
54589;SDS011;40485;53.172;5.416;2022-09-12T03:04:18;18.70;;;14.27;;
54589;SDS011;40485;53.172;5.416;2022-09-12T03:21:07;16.48;;;14.25;;
54589;SDS011;40485;53.172;5.416;2022-09-12T03:23:43;17.20;;;15.00;;
54589;SDS011;40485;53.172;5.416;2022-09-12T03:26:42;17.23;;;14.93;;
54589;SDS011;40485;53.172;5.416;2022-09-12T03:29:12;16.95;;;14.77;;
54589;SDS011;40485;53.172;5.416;2022-09-12T03:31:49;20.23;;;15.82;;
54589;SDS011;40485;53.172;5.416;2022-09-12T03:34:17;17.20;;;15.13;;
54589;SDS011;40485;53.172;5.416;2022-09-12T03:36:43;17.73;;;14.13;;
54589;SDS011;40485;53.172;5.416;2022-09-12T03:39:08;21.15;;;16.02;;
54589;SDS011;40485;53.172;5.416;2022-09-12T03:41:34;19.50;;;16.35;;
54589;SDS011;40485;53.172;5.416;2022-09-12T03:44:00;17.73;;;15.70;;
54589;SDS011;40485;53.172;5.416;2022-09-12T03:46:26;17.83;;;15.65;;
54589;SDS011;40485;53.172;5.416;2022-09-12T03:48:51;19.58;;;16.70;;
54589;SDS011;40485;53.172;5.416;2022-09-12T03:51:17;18.83;;;16.45;;
54589;SDS011;40485;53.172;5.416;2022-09-12T03:53:42;18.17;;;15.80;;
54589;SDS011;40485;53.172;5.416;2022-09-12T03:56:09;18.35;;;16.38;;
54589;SDS011;40485;53.172;5.416;2022-09-12T03:58:35;20.90;;;16.13;;
54589;SDS011;40485;53.172;5.416;2022-09-12T04:01:17;19.67;;;16.80;;
54589;SDS011;40485;53.172;5.416;2022-09-12T04:03:46;22.75;;;17.50;;
54589;SDS011;40485;53.172;5.416;2022-09-12T04:06:13;20.10;;;16.65;;
54589;SDS011;40485;53.172;5.416;2022-09-12T04:08:41;21.90;;;18.30;;
54589;SDS011;40485;53.172;5.416;2022-09-12T04:11:09;21.83;;;17.52;;
54589;SDS011;40485;53.172;5.416;2022-09-12T04:13:36;23.13;;;18.77;;
54589;SDS011;40485;53.172;5.416;2022-09-12T04:16:04;21.10;;;18.00;;
54589;SDS011;40485;53.172;5.416;2022-09-12T04:18:31;20.80;;;16.88;;
54589;SDS011;40485;53.172;5.416;2022-09-12T04:20:57;21.25;;;18.02;;
54589;SDS011;40485;53.172;5.416;2022-09-12T04:23:23;21.17;;;17.65;;
54589;SDS011;40485;53.172;5.416;2022-09-12T04:25:56;22.42;;;17.52;;
54589;SDS011;40485;53.172;5.416;2022-09-12T04:28:23;21.25;;;17.30;;
54589;SDS011;40485;53.172;5.416;2022-09-12T04:30:49;21.10;;;17.50;;
54589;SDS011;40485;53.172;5.416;2022-09-12T04:33:15;23.52;;;18.25;;
54589;SDS011;40485;53.172;5.416;2022-09-12T04:35:41;22.10;;;17.50;;
54589;SDS011;40485;53.172;5.416;2022-09-12T04:38:07;24.65;;;19.83;;
54589;SDS011;40485;53.172;5.416;2022-09-12T04:40:33;26.77;;;18.65;;
54589;SDS011;40485;53.172;5.416;2022-09-12T04:42:59;25.55;;;20.65;;
54589;SDS011;40485;53.172;5.416;2022-09-12T04:45:24;28.35;;;19.83;;
54589;SDS011;40485;53.172;5.416;2022-09-12T04:47:50;26.60;;;19.80;;
54589;SDS011;40485;53.172;5.416;2022-09-12T04:50:16;24.67;;;18.90;;
54589;SDS011;40485;53.172;5.416;2022-09-12T04:52:41;23.80;;;19.73;;
54589;SDS011;40485;53.172;5.416;2022-09-12T04:55:07;23.85;;;19.40;;
54589;SDS011;40485;53.172;5.416;2022-09-12T04:57:33;31.20;;;21.13;;
54589;SDS011;40485;53.172;5.416;2022-09-12T04:59:59;24.23;;;20.05;;
54589;SDS011;40485;53.172;5.416;2022-09-12T05:02:25;24.65;;;20.00;;
54589;SDS011;40485;53.172;5.416;2022-09-12T05:04:51;27.70;;;21.17;;
54589;SDS011;40485;53.172;5.416;2022-09-12T05:07:18;24.27;;;20.20;;
54589;SDS011;40485;53.172;5.416;2022-09-12T05:09:44;29.50;;;21.52;;
54589;SDS011;40485;53.172;5.416;2022-09-12T05:12:10;24.15;;;19.73;;
54589;SDS011;40485;53.172;5.416;2022-09-12T05:14:35;27.40;;;20.48;;
54589;SDS011;40485;53.172;5.416;2022-09-12T05:17:01;26.60;;;19.40;;
54589;SDS011;40485;53.172;5.416;2022-09-12T05:19:30;26.30;;;19.48;;
54589;SDS011;40485;53.172;5.416;2022-09-12T05:21:56;25.67;;;20.85;;
54589;SDS011;40485;53.172;5.416;2022-09-12T05:24:22;26.63;;;19.67;;
54589;SDS011;40485;53.172;5.416;2022-09-12T05:26:48;28.88;;;21.80;;
54589;SDS011;40485;53.172;5.416;2022-09-12T05:29:14;26.83;;;19.55;;
54589;SDS011;40485;53.172;5.416;2022-09-12T05:31:40;30.00;;;20.92;;
54589;SDS011;40485;53.172;5.416;2022-09-12T05:34:06;24.55;;;18.88;;
54589;SDS011;40485;53.172;5.416;2022-09-12T05:36:33;25.08;;;19.83;;
54589;SDS011;40485;53.172;5.416;2022-09-12T05:38:59;25.15;;;18.67;;
54589;SDS011;40485;53.172;5.416;2022-09-12T05:41:26;27.77;;;19.45;;
54589;SDS011;40485;53.172;5.416;2022-09-12T05:43:58;27.95;;;19.73;;
54589;SDS011;40485;53.172;5.416;2022-09-12T05:46:26;27.38;;;19.45;;
54589;SDS011;40485;53.172;5.416;2022-09-12T05:48:53;25.67;;;20.65;;
54589;SDS011;40485;53.172;5.416;2022-09-12T05:51:23;23.30;;;18.92;;
54589;SDS011;40485;53.172;5.416;2022-09-12T05:53:51;24.30;;;19.30;;
54589;SDS011;40485;53.172;5.416;2022-09-12T05:56:20;25.27;;;19.88;;
54589;SDS011;40485;53.172;5.416;2022-09-12T05:58:57;25.95;;;20.20;;
54589;SDS011;40485;53.172;5.416;2022-09-12T06:01:25;24.80;;;19.98;;
54589;SDS011;40485;53.172;5.416;2022-09-12T06:03:52;25.90;;;20.10;;
54589;SDS011;40485;53.172;5.416;2022-09-12T06:06:20;24.52;;;18.67;;
54589;SDS011;40485;53.172;5.416;2022-09-12T06:08:48;26.60;;;19.73;;
54589;SDS011;40485;53.172;5.416;2022-09-12T06:11:19;22.98;;;18.77;;
54589;SDS011;40485;53.172;5.416;2022-09-12T06:13:47;21.85;;;17.95;;
54589;SDS011;40485;53.172;5.416;2022-09-12T06:16:17;21.60;;;18.33;;
54589;SDS011;40485;53.172;5.416;2022-09-12T06:18:47;23.30;;;17.90;;
54589;SDS011;40485;53.172;5.416;2022-09-12T06:21:14;21.20;;;17.38;;
54589;SDS011;40485;53.172;5.416;2022-09-12T06:23:40;22.88;;;17.88;;
54589;SDS011;40485;53.172;5.416;2022-09-12T06:26:07;18.60;;;16.60;;
54589;SDS011;40485;53.172;5.416;2022-09-12T06:28:34;25.17;;;18.17;;
54589;SDS011;40485;53.172;5.416;2022-09-12T06:31:02;20.60;;;17.73;;
54589;SDS011;40485;53.172;5.416;2022-09-12T06:33:30;23.58;;;18.27;;
54589;SDS011;40485;53.172;5.416;2022-09-12T06:36:09;24.77;;;18.33;;
54589;SDS011;40485;53.172;5.416;2022-09-12T06:38:35;22.02;;;17.38;;
54589;SDS011;40485;53.172;5.416;2022-09-12T06:41:06;25.17;;;18.23;;
54589;SDS011;40485;53.172;5.416;2022-09-12T06:43:33;22.38;;;17.27;;
54589;SDS011;40485;53.172;5.416;2022-09-12T06:46:00;21.30;;;17.42;;
54589;SDS011;40485;53.172;5.416;2022-09-12T06:48:26;22.90;;;16.52;;
54589;SDS011;40485;53.172;5.416;2022-09-12T06:50:55;23.75;;;17.60;;
54589;SDS011;40485;53.172;5.416;2022-09-12T06:53:22;21.02;;;17.35;;
54589;SDS011;40485;53.172;5.416;2022-09-12T06:55:53;25.08;;;16.70;;
54589;SDS011;40485;53.172;5.416;2022-09-12T06:58:23;21.02;;;17.02;;
54589;SDS011;40485;53.172;5.416;2022-09-12T07:00:49;22.75;;;17.30;;
54589;SDS011;40485;53.172;5.416;2022-09-12T07:03:15;21.05;;;16.65;;
54589;SDS011;40485;53.172;5.416;2022-09-12T07:05:41;20.77;;;16.67;;
54589;SDS011;40485;53.172;5.416;2022-09-12T07:08:06;20.95;;;16.23;;
54589;SDS011;40485;53.172;5.416;2022-09-12T07:10:32;20.50;;;16.20;;
54589;SDS011;40485;53.172;5.416;2022-09-12T07:12:57;19.27;;;16.33;;
54589;SDS011;40485;53.172;5.416;2022-09-12T07:15:23;20.70;;;15.80;;
54589;SDS011;40485;53.172;5.416;2022-09-12T07:17:49;17.20;;;13.25;;
54589;SDS011;40485;53.172;5.416;2022-09-12T07:20:14;19.65;;;15.57;;
54589;SDS011;40485;53.172;5.416;2022-09-12T07:22:40;20.88;;;15.77;;
54589;SDS011;40485;53.172;5.416;2022-09-12T07:25:06;16.27;;;13.90;;
54589;SDS011;40485;53.172;5.416;2022-09-12T07:27:32;18.08;;;14.93;;
54589;SDS011;40485;53.172;5.416;2022-09-12T07:29:58;20.25;;;15.23;;
54589;SDS011;40485;53.172;5.416;2022-09-12T07:32:24;18.13;;;13.98;;
54589;SDS011;40485;53.172;5.416;2022-09-12T07:34:50;20.25;;;15.68;;
54589;SDS011;40485;53.172;5.416;2022-09-12T07:37:16;19.30;;;15.88;;
54589;SDS011;40485;53.172;5.416;2022-09-12T07:39:42;19.77;;;14.75;;
54589;SDS011;40485;53.172;5.416;2022-09-12T07:42:07;19.17;;;14.73;;
54589;SDS011;40485;53.172;5.416;2022-09-12T07:44:35;19.67;;;14.57;;
54589;SDS011;40485;53.172;5.416;2022-09-12T07:47:00;20.00;;;15.18;;
54589;SDS011;40485;53.172;5.416;2022-09-12T07:49:26;18.52;;;15.60;;
54589;SDS011;40485;53.172;5.416;2022-09-12T07:51:52;19.30;;;14.32;;
54589;SDS011;40485;53.172;5.416;2022-09-12T07:54:17;20.90;;;15.48;;
54589;SDS011;40485;53.172;5.416;2022-09-12T07:56:43;20.73;;;14.77;;
54589;SDS011;40485;53.172;5.416;2022-09-12T07:59:09;19.63;;;14.38;;
54589;SDS011;40485;53.172;5.416;2022-09-12T08:01:35;19.50;;;15.48;;
54589;SDS011;40485;53.172;5.416;2022-09-12T08:04:01;20.15;;;15.73;;
54589;SDS011;40485;53.172;5.416;2022-09-12T08:06:28;19.60;;;16.17;;
54589;SDS011;40485;53.172;5.416;2022-09-12T08:08:56;21.50;;;16.02;;
54589;SDS011;40485;53.172;5.416;2022-09-12T08:11:24;22.75;;;16.40;;
54589;SDS011;40485;53.172;5.416;2022-09-12T08:13:52;21.80;;;15.77;;
54589;SDS011;40485;53.172;5.416;2022-09-12T08:16:20;25.63;;;16.20;;
54589;SDS011;40485;53.172;5.416;2022-09-12T08:18:47;19.92;;;15.75;;
54589;SDS011;40485;53.172;5.416;2022-09-12T08:21:20;21.42;;;15.95;;
54589;SDS011;40485;53.172;5.416;2022-09-12T08:23:51;25.35;;;16.40;;
54589;SDS011;40485;53.172;5.416;2022-09-12T08:26:20;22.25;;;17.13;;
54589;SDS011;40485;53.172;5.416;2022-09-12T08:28:47;23.23;;;17.15;;
54589;SDS011;40485;53.172;5.416;2022-09-12T08:31:14;22.48;;;16.02;;
54589;SDS011;40485;53.172;5.416;2022-09-12T08:33:41;23.38;;;16.33;;
54589;SDS011;40485;53.172;5.416;2022-09-12T08:36:17;19.67;;;15.95;;
54589;SDS011;40485;53.172;5.416;2022-09-12T08:38:45;23.63;;;16.08;;
54589;SDS011;40485;53.172;5.416;2022-09-12T08:57:58;20.25;;;14.52;;
54589;SDS011;40485;53.172;5.416;2022-09-12T09:00:28;19.70;;;14.23;;
54589;SDS011;40485;53.172;5.416;2022-09-12T09:03:14;20.65;;;15.73;;
54589;SDS011;40485;53.172;5.416;2022-09-12T09:05:55;20.92;;;14.10;;
54589;SDS011;40485;53.172;5.416;2022-09-12T09:16:40;18.88;;;12.45;;
54589;SDS011;40485;53.172;5.416;2022-09-12T09:19:14;17.75;;;11.63;;
54589;SDS011;40485;53.172;5.416;2022-09-12T09:22:24;15.43;;;11.90;;
54589;SDS011;40485;53.172;5.416;2022-09-12T09:25:09;18.23;;;10.55;;
54589;SDS011;40485;53.172;5.416;2022-09-12T09:27:48;21.77;;;11.05;;
54589;SDS011;40485;53.172;5.416;2022-09-12T09:30:24;13.38;;;10.18;;
54589;SDS011;40485;53.172;5.416;2022-09-12T09:32:56;16.75;;;10.70;;
54589;SDS011;40485;53.172;5.416;2022-09-12T09:35:43;15.63;;;11.25;;
54589;SDS011;40485;53.172;5.416;2022-09-12T09:43:48;17.08;;;11.65;;
54589;SDS011;40485;53.172;5.416;2022-09-12T09:46:14;14.63;;;11.18;;
54589;SDS011;40485;53.172;5.416;2022-09-12T09:48:40;18.55;;;12.23;;
54589;SDS011;40485;53.172;5.416;2022-09-12T09:51:10;18.13;;;12.45;;
54589;SDS011;40485;53.172;5.416;2022-09-12T09:53:47;20.00;;;13.25;;
54589;SDS011;40485;53.172;5.416;2022-09-12T09:59:18;15.65;;;11.77;;
54589;SDS011;40485;53.172;5.416;2022-09-12T10:01:52;16.83;;;12.32;;
54589;SDS011;40485;53.172;5.416;2022-09-12T10:04:21;16.83;;;12.75;;
54589;SDS011;40485;53.172;5.416;2022-09-12T10:06:53;16.50;;;10.93;;
54589;SDS011;40485;53.172;5.416;2022-09-12T10:09:25;18.38;;;11.02;;
54589;SDS011;40485;53.172;5.416;2022-09-12T10:11:52;15.77;;;12.15;;
54589;SDS011;40485;53.172;5.416;2022-09-12T10:16:50;16.83;;;12.32;;
54589;SDS011;40485;53.172;5.416;2022-09-12T10:19:21;16.67;;;12.48;;
54589;SDS011;40485;53.172;5.416;2022-09-12T10:22:04;17.13;;;12.20;;
54589;SDS011;40485;53.172;5.416;2022-09-12T10:27:07;16.92;;;12.40;;
54589;SDS011;40485;53.172;5.416;2022-09-12T10:32:18;16.33;;;12.13;;
54589;SDS011;40485;53.172;5.416;2022-09-12T10:35:00;15.88;;;11.95;;
54589;SDS011;40485;53.172;5.416;2022-09-12T10:37:36;17.50;;;11.82;;
54589;SDS011;40485;53.172;5.416;2022-09-12T10:40:07;15.38;;;12.15;;
54589;SDS011;40485;53.172;5.416;2022-09-12T10:42:51;18.58;;;11.75;;
54589;SDS011;40485;53.172;5.416;2022-09-12T10:45:28;17.83;;;13.02;;
54589;SDS011;40485;53.172;5.416;2022-09-12T10:47:59;17.65;;;13.25;;
54589;SDS011;40485;53.172;5.416;2022-09-12T10:50:27;17.65;;;13.18;;
54589;SDS011;40485;53.172;5.416;2022-09-12T10:55:40;21.58;;;14.18;;
54589;SDS011;40485;53.172;5.416;2022-09-12T11:00:57;17.90;;;14.02;;
54589;SDS011;40485;53.172;5.416;2022-09-12T11:12:22;21.15;;;15.75;;
54589;SDS011;40485;53.172;5.416;2022-09-12T11:15:00;20.05;;;14.02;;
54589;SDS011;40485;53.172;5.416;2022-09-12T11:36:16;20.40;;;14.40;;
54589;SDS011;40485;53.172;5.416;2022-09-12T11:38:56;17.08;;;12.80;;
54589;SDS011;40485;53.172;5.416;2022-09-12T11:41:31;17.42;;;13.50;;
54589;SDS011;40485;53.172;5.416;2022-09-12T11:46:45;20.25;;;13.05;;
54589;SDS011;40485;53.172;5.416;2022-09-12T11:49:15;18.02;;;12.63;;
54589;SDS011;40485;53.172;5.416;2022-09-12T11:54:40;18.45;;;13.10;;
54589;SDS011;40485;53.172;5.416;2022-09-12T12:02:33;19.95;;;12.52;;
54589;SDS011;40485;53.172;5.416;2022-09-12T12:10:22;19.25;;;13.52;;
54589;SDS011;40485;53.172;5.416;2022-09-12T12:12:57;16.85;;;12.20;;
54589;SDS011;40485;53.172;5.416;2022-09-12T12:15:26;18.85;;;12.43;;
54589;SDS011;40485;53.172;5.416;2022-09-12T12:18:00;19.80;;;13.13;;
54589;SDS011;40485;53.172;5.416;2022-09-12T12:22:54;23.20;;;14.55;;
54589;SDS011;40485;53.172;5.416;2022-09-12T12:25:22;16.95;;;13.23;;
54589;SDS011;40485;53.172;5.416;2022-09-12T12:27:54;18.27;;;13.38;;
54589;SDS011;40485;53.172;5.416;2022-09-12T12:33:01;18.10;;;13.35;;
54589;SDS011;40485;53.172;5.416;2022-09-12T12:38:00;16.75;;;13.30;;
54589;SDS011;40485;53.172;5.416;2022-09-12T12:40:28;15.25;;;12.35;;
54589;SDS011;40485;53.172;5.416;2022-09-12T12:47:52;18.65;;;12.75;;
54589;SDS011;40485;53.172;5.416;2022-09-12T12:50:23;15.65;;;12.02;;
54589;SDS011;40485;53.172;5.416;2022-09-12T12:52:52;15.18;;;12.25;;
54589;SDS011;40485;53.172;5.416;2022-09-12T12:55:31;15.70;;;12.40;;
54589;SDS011;40485;53.172;5.416;2022-09-12T12:58:03;15.55;;;11.45;;
54589;SDS011;40485;53.172;5.416;2022-09-12T13:00:34;13.85;;;11.85;;
54589;SDS011;40485;53.172;5.416;2022-09-12T13:05:36;18.73;;;11.10;;
54589;SDS011;40485;53.172;5.416;2022-09-12T13:08:28;15.32;;;10.70;;
54589;SDS011;40485;53.172;5.416;2022-09-12T13:11:07;14.50;;;10.27;;
54589;SDS011;40485;53.172;5.416;2022-09-12T13:13:56;15.32;;;10.70;;
54589;SDS011;40485;53.172;5.416;2022-09-12T13:16:50;15.88;;;9.82;;
54589;SDS011;40485;53.172;5.416;2022-09-12T13:19:21;12.85;;;9.55;;
54589;SDS011;40485;53.172;5.416;2022-09-12T13:22:02;12.35;;;8.90;;
54589;SDS011;40485;53.172;5.416;2022-09-12T13:24:30;13.10;;;9.63;;
54589;SDS011;40485;53.172;5.416;2022-09-12T13:26:55;15.18;;;9.57;;
54589;SDS011;40485;53.172;5.416;2022-09-12T13:29:25;11.88;;;9.63;;
54589;SDS011;40485;53.172;5.416;2022-09-12T13:31:53;12.43;;;9.93;;
54589;SDS011;40485;53.172;5.416;2022-09-12T13:34:28;13.65;;;9.90;;
54589;SDS011;40485;53.172;5.416;2022-09-12T13:37:08;13.05;;;10.45;;
54589;SDS011;40485;53.172;5.416;2022-09-12T13:39:59;11.48;;;9.80;;
54589;SDS011;40485;53.172;5.416;2022-09-12T13:42:50;13.82;;;10.80;;
54589;SDS011;40485;53.172;5.416;2022-09-12T13:45:32;12.18;;;9.18;;
54589;SDS011;40485;53.172;5.416;2022-09-12T13:48:01;12.80;;;8.90;;
54589;SDS011;40485;53.172;5.416;2022-09-12T13:50:32;13.93;;;10.40;;
54589;SDS011;40485;53.172;5.416;2022-09-12T13:53:04;11.68;;;9.95;;
54589;SDS011;40485;53.172;5.416;2022-09-12T13:55:37;32.60;;;9.20;;
54589;SDS011;40485;53.172;5.416;2022-09-12T14:01:14;11.05;;;7.55;;
54589;SDS011;40485;53.172;5.416;2022-09-12T14:03:41;13.85;;;8.25;;
54589;SDS011;40485;53.172;5.416;2022-09-12T14:06:40;13.93;;;8.18;;
54589;SDS011;40485;53.172;5.416;2022-09-12T14:09:23;14.52;;;8.60;;
54589;SDS011;40485;53.172;5.416;2022-09-12T14:29:13;13.20;;;9.27;;
54589;SDS011;40485;53.172;5.416;2022-09-12T14:31:40;12.30;;;8.43;;
54589;SDS011;40485;53.172;5.416;2022-09-12T14:36:41;15.75;;;9.32;;
54589;SDS011;40485;53.172;5.416;2022-09-12T14:39:19;11.75;;;8.20;;
54589;SDS011;40485;53.172;5.416;2022-09-12T14:42:03;10.50;;;8.93;;
54589;SDS011;40485;53.172;5.416;2022-09-12T14:44:42;10.68;;;8.45;;
54589;SDS011;40485;53.172;5.416;2022-09-12T14:47:21;13.30;;;8.25;;
54589;SDS011;40485;53.172;5.416;2022-09-12T14:49:49;14.30;;;9.05;;
54589;SDS011;40485;53.172;5.416;2022-09-12T14:52:26;13.65;;;8.65;;
54589;SDS011;40485;53.172;5.416;2022-09-12T14:54:55;12.27;;;8.38;;
54589;SDS011;40485;53.172;5.416;2022-09-12T14:57:36;11.90;;;7.88;;
54589;SDS011;40485;53.172;5.416;2022-09-12T15:02:42;9.80;;;8.55;;
54589;SDS011;40485;53.172;5.416;2022-09-12T15:07:38;13.32;;;8.50;;
54589;SDS011;40485;53.172;5.416;2022-09-12T15:12:39;10.25;;;8.98;;
54589;SDS011;40485;53.172;5.416;2022-09-12T15:15:12;10.95;;;8.10;;
54589;SDS011;40485;53.172;5.416;2022-09-12T15:17:43;10.02;;;8.13;;
54589;SDS011;40485;53.172;5.416;2022-09-12T15:20:09;11.95;;;8.75;;
54589;SDS011;40485;53.172;5.416;2022-09-12T15:22:36;9.60;;;8.02;;
54589;SDS011;40485;53.172;5.416;2022-09-12T15:25:03;11.38;;;7.90;;
54589;SDS011;40485;53.172;5.416;2022-09-12T15:27:30;11.30;;;8.23;;
54589;SDS011;40485;53.172;5.416;2022-09-12T15:29:56;11.40;;;8.25;;
54589;SDS011;40485;53.172;5.416;2022-09-12T15:32:25;8.57;;;7.65;;
54589;SDS011;40485;53.172;5.416;2022-09-12T15:34:53;7.57;;;3.40;;
54589;SDS011;40485;53.172;5.416;2022-09-12T15:37:19;2.80;;;1.70;;
54589;SDS011;40485;53.172;5.416;2022-09-12T15:39:47;3.63;;;1.50;;
54589;SDS011;40485;53.172;5.416;2022-09-12T15:42:13;2.55;;;1.23;;
54589;SDS011;40485;53.172;5.416;2022-09-12T15:44:39;2.85;;;1.25;;
54589;SDS011;40485;53.172;5.416;2022-09-12T15:47:05;3.72;;;1.00;;
54589;SDS011;40485;53.172;5.416;2022-09-12T15:49:35;3.38;;;1.25;;
54589;SDS011;40485;53.172;5.416;2022-09-12T15:52:01;2.97;;;1.33;;
54589;SDS011;40485;53.172;5.416;2022-09-12T15:54:26;3.22;;;1.40;;
54589;SDS011;40485;53.172;5.416;2022-09-12T15:56:52;2.03;;;1.20;;
54589;SDS011;40485;53.172;5.416;2022-09-12T15:59:18;2.15;;;1.10;;
54589;SDS011;40485;53.172;5.416;2022-09-12T16:01:43;3.58;;;1.30;;
54589;SDS011;40485;53.172;5.416;2022-09-12T16:04:20;3.22;;;1.50;;
54589;SDS011;40485;53.172;5.416;2022-09-12T16:06:47;2.58;;;1.05;;
54589;SDS011;40485;53.172;5.416;2022-09-12T16:09:13;2.55;;;1.30;;
54589;SDS011;40485;53.172;5.416;2022-09-12T16:11:39;2.22;;;1.00;;
54589;SDS011;40485;53.172;5.416;2022-09-12T16:14:05;3.42;;;1.67;;
54589;SDS011;40485;53.172;5.416;2022-09-12T16:16:31;4.35;;;1.45;;
54589;SDS011;40485;53.172;5.416;2022-09-12T16:18:57;3.65;;;1.48;;
54589;SDS011;40485;53.172;5.416;2022-09-12T16:21:22;3.03;;;1.40;;
54589;SDS011;40485;53.172;5.416;2022-09-12T16:23:49;2.72;;;1.30;;
54589;SDS011;40485;53.172;5.416;2022-09-12T16:26:14;1.90;;;1.17;;
54589;SDS011;40485;53.172;5.416;2022-09-12T16:28:41;3.67;;;2.03;;
54589;SDS011;40485;53.172;5.416;2022-09-12T16:31:07;2.28;;;1.10;;
54589;SDS011;40485;53.172;5.416;2022-09-12T16:33:36;2.65;;;1.08;;
54589;SDS011;40485;53.172;5.416;2022-09-12T16:36:03;3.58;;;1.23;;
54589;SDS011;40485;53.172;5.416;2022-09-12T16:38:30;5.35;;;1.52;;
54589;SDS011;40485;53.172;5.416;2022-09-12T16:41:02;1.80;;;1.33;;
54589;SDS011;40485;53.172;5.416;2022-09-12T16:43:29;3.90;;;1.33;;
54589;SDS011;40485;53.172;5.416;2022-09-12T16:48:54;3.13;;;1.48;;
54589;SDS011;40485;53.172;5.416;2022-09-12T16:51:22;3.67;;;1.98;;
54589;SDS011;40485;53.172;5.416;2022-09-12T16:53:49;5.07;;;2.10;;
54589;SDS011;40485;53.172;5.416;2022-09-12T16:56:15;3.72;;;1.80;;
54589;SDS011;40485;53.172;5.416;2022-09-12T16:58:41;3.47;;;1.80;;
54589;SDS011;40485;53.172;5.416;2022-09-12T17:01:08;2.75;;;1.75;;
54589;SDS011;40485;53.172;5.416;2022-09-12T17:03:40;3.58;;;1.90;;
54589;SDS011;40485;53.172;5.416;2022-09-12T17:06:07;2.83;;;1.67;;
54589;SDS011;40485;53.172;5.416;2022-09-12T17:08:35;2.65;;;1.73;;
54589;SDS011;40485;53.172;5.416;2022-09-12T17:11:07;3.70;;;2.10;;
54589;SDS011;40485;53.172;5.416;2022-09-12T17:13:34;3.60;;;1.77;;
54589;SDS011;40485;53.172;5.416;2022-09-12T17:16:03;5.57;;;1.88;;
54589;SDS011;40485;53.172;5.416;2022-09-12T17:18:38;3.55;;;2.22;;
54589;SDS011;40485;53.172;5.416;2022-09-12T17:21:07;4.90;;;2.10;;
54589;SDS011;40485;53.172;5.416;2022-09-12T17:23:33;3.25;;;2.10;;
54589;SDS011;40485;53.172;5.416;2022-09-12T17:25:59;3.17;;;2.17;;
54589;SDS011;40485;53.172;5.416;2022-09-12T17:28:25;4.53;;;2.40;;
54589;SDS011;40485;53.172;5.416;2022-09-12T17:30:55;5.38;;;2.50;;
54589;SDS011;40485;53.172;5.416;2022-09-12T17:33:21;3.58;;;2.25;;
54589;SDS011;40485;53.172;5.416;2022-09-12T17:35:47;3.67;;;1.95;;
54589;SDS011;40485;53.172;5.416;2022-09-12T17:38:13;6.45;;;2.28;;
54589;SDS011;40485;53.172;5.416;2022-09-12T17:40:39;3.67;;;1.85;;
54589;SDS011;40485;53.172;5.416;2022-09-12T17:43:04;5.25;;;2.20;;
54589;SDS011;40485;53.172;5.416;2022-09-12T17:45:30;3.45;;;1.92;;
54589;SDS011;40485;53.172;5.416;2022-09-12T17:47:55;6.30;;;2.00;;
54589;SDS011;40485;53.172;5.416;2022-09-12T17:50:21;3.60;;;1.95;;
54589;SDS011;40485;53.172;5.416;2022-09-12T17:52:47;3.53;;;1.88;;
54589;SDS011;40485;53.172;5.416;2022-09-12T17:55:13;2.45;;;1.90;;
54589;SDS011;40485;53.172;5.416;2022-09-12T17:57:39;3.95;;;1.92;;